sensor_id;sensor_type;location;lat;lon;timestamp;pressure;altitude;pressure_sealevel;temperature;humidity
38616;BME280;24370;51.986;4.666;2023-04-06T00:00:31;101870.97;;;12.32;39.36
38616;BME280;24370;51.986;4.666;2023-04-06T00:02:56;101868.81;;;13.58;36.81
38616;BME280;24370;51.986;4.666;2023-04-06T00:05:21;101867.31;;;12.98;37.33
38616;BME280;24370;51.986;4.666;2023-04-06T00:07:48;101860.44;;;12.42;38.10
38616;BME280;24370;51.986;4.666;2023-04-06T00:10:13;101859.50;;;12.78;37.82
38616;BME280;24370;51.986;4.666;2023-04-06T00:12:39;101864.72;;;12.89;37.24
38616;BME280;24370;51.986;4.666;2023-04-06T00:15:05;101861.16;;;13.09;37.29
38616;BME280;24370;51.986;4.666;2023-04-06T00:17:30;101857.75;;;12.76;37.14
38616;BME280;24370;51.986;4.666;2023-04-06T00:19:56;101860.31;;;12.99;37.50
38616;BME280;24370;51.986;4.666;2023-04-06T00:22:21;101859.44;;;13.00;36.80
38616;BME280;24370;51.986;4.666;2023-04-06T00:24:46;101859.47;;;12.92;36.96
38616;BME280;24370;51.986;4.666;2023-04-06T00:27:12;101856.09;;;12.41;37.77
38616;BME280;24370;51.986;4.666;2023-04-06T00:29:39;101838.91;;;13.81;35.66
38616;BME280;24370;51.986;4.666;2023-04-06T00:32:04;101847.88;;;13.46;36.13
38616;BME280;24370;51.986;4.666;2023-04-06T00:34:30;101842.97;;;12.48;36.90
38616;BME280;24370;51.986;4.666;2023-04-06T00:36:56;101829.47;;;13.52;35.65
38616;BME280;24370;51.986;4.666;2023-04-06T00:39:21;101830.44;;;13.21;37.08
38616;BME280;24370;51.986;4.666;2023-04-06T00:41:50;101835.91;;;12.67;37.18
38616;BME280;24370;51.986;4.666;2023-04-06T00:44:15;101827.25;;;12.41;37.57
38616;BME280;24370;51.986;4.666;2023-04-06T00:46:41;101829.78;;;12.75;36.55
38616;BME280;24370;51.986;4.666;2023-04-06T00:49:06;101820.13;;;12.83;36.30
38616;BME280;24370;51.986;4.666;2023-04-06T00:51:32;101830.69;;;12.58;37.29
38616;BME280;24370;51.986;4.666;2023-04-06T00:53:57;101822.63;;;13.14;36.59
38616;BME280;24370;51.986;4.666;2023-04-06T00:56:22;101816.72;;;12.65;37.31
38616;BME280;24370;51.986;4.666;2023-04-06T00:58:49;101813.28;;;12.26;37.88
38616;BME280;24370;51.986;4.666;2023-04-06T01:01:14;101815.00;;;11.84;38.62
38616;BME280;24370;51.986;4.666;2023-04-06T01:03:40;101807.97;;;12.60;37.57
38616;BME280;24370;51.986;4.666;2023-04-06T01:06:07;101806.28;;;11.76;38.70
38616;BME280;24370;51.986;4.666;2023-04-06T01:08:32;101808.03;;;11.86;38.67
38616;BME280;24370;51.986;4.666;2023-04-06T01:10:59;101796.66;;;12.41;38.06
38616;BME280;24370;51.986;4.666;2023-04-06T01:13:26;101787.91;;;12.47;38.06
38616;BME280;24370;51.986;4.666;2023-04-06T01:15:51;101794.88;;;12.52;37.78
38616;BME280;24370;51.986;4.666;2023-04-06T01:18:17;101786.19;;;11.71;39.21
38616;BME280;24370;51.986;4.666;2023-04-06T01:20:42;101796.69;;;12.36;38.03
38616;BME280;24370;51.986;4.666;2023-04-06T01:23:07;101785.22;;;12.65;37.49
38616;BME280;24370;51.986;4.666;2023-04-06T01:25:33;101786.22;;;12.26;37.98
38616;BME280;24370;51.986;4.666;2023-04-06T01:27:58;101781.81;;;11.67;38.89
38616;BME280;24370;51.986;4.666;2023-04-06T01:30:23;101776.56;;;11.43;39.77
38616;BME280;24370;51.986;4.666;2023-04-06T01:32:49;101776.53;;;12.51;38.26
38616;BME280;24370;51.986;4.666;2023-04-06T01:35:14;101773.88;;;11.04;40.80
38616;BME280;24370;51.986;4.666;2023-04-06T01:37:39;101770.38;;;11.03;40.84
38616;BME280;24370;51.986;4.666;2023-04-06T01:40:06;101761.72;;;11.37;40.05
38616;BME280;24370;51.986;4.666;2023-04-06T01:42:31;101752.16;;;11.67;39.76
38616;BME280;24370;51.986;4.666;2023-04-06T01:44:57;101759.13;;;11.73;39.76
38616;BME280;24370;51.986;4.666;2023-04-06T01:47:22;101754.72;;;12.33;38.90
38616;BME280;24370;51.986;4.666;2023-04-06T01:49:47;101748.66;;;11.60;40.21
38616;BME280;24370;51.986;4.666;2023-04-06T01:52:12;101745.03;;;12.60;38.55
38616;BME280;24370;51.986;4.666;2023-04-06T01:54:39;101746.03;;;11.76;39.83
38616;BME280;24370;51.986;4.666;2023-04-06T01:57:04;101746.03;;;11.45;40.82
38616;BME280;24370;51.986;4.666;2023-04-06T01:59:30;101751.22;;;11.25;41.03
38616;BME280;24370;51.986;4.666;2023-04-06T02:01:55;101738.16;;;11.26;40.64
38616;BME280;24370;51.986;4.666;2023-04-06T02:04:20;101736.41;;;11.93;39.76
38616;BME280;24370;51.986;4.666;2023-04-06T02:06:46;101740.78;;;12.19;39.31
38616;BME280;24370;51.986;4.666;2023-04-06T02:09:11;101739.81;;;10.93;41.35
38616;BME280;24370;51.986;4.666;2023-04-06T02:11:37;101737.31;;;11.52;40.48
38616;BME280;24370;51.986;4.666;2023-04-06T02:14:02;101729.44;;;11.77;39.82
38616;BME280;24370;51.986;4.666;2023-04-06T02:16:27;101733.72;;;12.35;38.99
38616;BME280;24370;51.986;4.666;2023-04-06T02:18:53;101722.47;;;11.42;40.53
38616;BME280;24370;51.986;4.666;2023-04-06T02:21:18;101716.31;;;12.15;39.27
38616;BME280;24370;51.986;4.666;2023-04-06T02:23:46;101717.22;;;11.73;40.04
38616;BME280;24370;51.986;4.666;2023-04-06T02:26:12;101712.00;;;11.94;40.10
38616;BME280;24370;51.986;4.666;2023-04-06T02:28:37;101711.09;;;12.11;40.38
38616;BME280;24370;51.986;4.666;2023-04-06T02:31:02;101711.09;;;12.04;39.66
38616;BME280;24370;51.986;4.666;2023-04-06T02:33:27;101708.28;;;12.63;38.94
38616;BME280;24370;51.986;4.666;2023-04-06T02:35:53;101704.72;;;12.80;38.75
38616;BME280;24370;51.986;4.666;2023-04-06T02:38:18;101698.88;;;11.88;39.83
38616;BME280;24370;51.986;4.666;2023-04-06T02:40:43;101704.94;;;12.21;39.45
38616;BME280;24370;51.986;4.666;2023-04-06T02:43:09;101701.53;;;11.79;40.30
38616;BME280;24370;51.986;4.666;2023-04-06T02:45:34;101698.91;;;11.43;41.01
38616;BME280;24370;51.986;4.666;2023-04-06T02:47:59;101701.53;;;11.57;41.77
38616;BME280;24370;51.986;4.666;2023-04-06T02:50:25;101694.47;;;10.96;42.27
38616;BME280;24370;51.986;4.666;2023-04-06T02:52:52;101699.78;;;11.41;41.86
38616;BME280;24370;51.986;4.666;2023-04-06T02:55:17;101687.53;;;11.77;41.38
38616;BME280;24370;51.986;4.666;2023-04-06T02:57:44;101687.56;;;11.64;41.48
38616;BME280;24370;51.986;4.666;2023-04-06T03:00:10;101685.81;;;11.63;41.52
38616;BME280;24370;51.986;4.666;2023-04-06T03:02:36;101688.44;;;11.66;41.41
38616;BME280;24370;51.986;4.666;2023-04-06T03:05:01;101686.69;;;11.62;40.95
38616;BME280;24370;51.986;4.666;2023-04-06T03:07:28;101683.22;;;11.57;41.48
38616;BME280;24370;51.986;4.666;2023-04-06T03:09:54;101675.38;;;11.42;41.75
38616;BME280;24370;51.986;4.666;2023-04-06T03:12:20;101684.94;;;11.97;41.10
38616;BME280;24370;51.986;4.666;2023-04-06T03:14:45;101678.81;;;11.99;41.04
38616;BME280;24370;51.986;4.666;2023-04-06T03:17:10;101663.69;;;12.69;39.67
38616;BME280;24370;51.986;4.666;2023-04-06T03:19:36;101665.59;;;12.29;40.04
38616;BME280;24370;51.986;4.666;2023-04-06T03:22:01;101657.53;;;12.70;39.71
38616;BME280;24370;51.986;4.666;2023-04-06T03:24:26;101663.38;;;13.14;38.95
38616;BME280;24370;51.986;4.666;2023-04-06T03:26:52;101659.09;;;13.02;38.66
38616;BME280;24370;51.986;4.666;2023-04-06T03:29:17;101653.09;;;12.80;39.59
38616;BME280;24370;51.986;4.666;2023-04-06T03:31:43;101650.25;;;13.13;38.80
38616;BME280;24370;51.986;4.666;2023-04-06T03:34:08;101653.41;;;13.58;38.25
38616;BME280;24370;51.986;4.666;2023-04-06T03:36:34;101651.81;;;13.42;38.45
38616;BME280;24370;51.986;4.666;2023-04-06T03:39:00;101649.25;;;13.31;38.58
38616;BME280;24370;51.986;4.666;2023-04-06T03:41:25;101643.66;;;12.50;40.26
38616;BME280;24370;51.986;4.666;2023-04-06T03:43:51;101648.25;;;11.83;40.92
38616;BME280;24370;51.986;4.666;2023-04-06T03:46:16;101641.84;;;12.66;39.81
38616;BME280;24370;51.986;4.666;2023-04-06T03:48:42;101638.09;;;13.02;39.48
38616;BME280;24370;51.986;4.666;2023-04-06T03:51:07;101639.72;;;13.16;38.73
38616;BME280;24370;51.986;4.666;2023-04-06T03:53:33;101639.91;;;12.94;39.54
38616;BME280;24370;51.986;4.666;2023-04-06T03:55:58;101640.13;;;12.54;40.61
38616;BME280;24370;51.986;4.666;2023-04-06T03:58:23;101641.22;;;12.08;41.79
38616;BME280;24370;51.986;4.666;2023-04-06T04:00:49;101638.34;;;12.65;40.89
38616;BME280;24370;51.986;4.666;2023-04-06T04:03:14;101647.38;;;11.81;42.18
38616;BME280;24370;51.986;4.666;2023-04-06T04:05:40;101649.03;;;12.22;41.57
38616;BME280;24370;51.986;4.666;2023-04-06T04:08:05;101638.53;;;12.28;41.63
38616;BME280;24370;51.986;4.666;2023-04-06T04:10:30;101641.63;;;12.95;40.28
38616;BME280;24370;51.986;4.666;2023-04-06T04:12:56;101634.88;;;12.60;41.02
38616;BME280;24370;51.986;4.666;2023-04-06T04:15:21;101640.25;;;12.32;41.70
38616;BME280;24370;51.986;4.666;2023-04-06T04:17:46;101640.28;;;12.26;41.93
38616;BME280;24370;51.986;4.666;2023-04-06T04:20:14;101637.94;;;13.21;40.20
38616;BME280;24370;51.986;4.666;2023-04-06T04:22:40;101632.50;;;12.01;41.75
38616;BME280;24370;51.986;4.666;2023-04-06T04:25:06;101638.22;;;12.84;40.79
38616;BME280;24370;51.986;4.666;2023-04-06T04:27:31;101632.66;;;13.27;39.62
38616;BME280;24370;51.986;4.666;2023-04-06T04:29:57;101628.25;;;13.31;39.67
38616;BME280;24370;51.986;4.666;2023-04-06T04:32:22;101628.66;;;12.72;40.75
38616;BME280;24370;51.986;4.666;2023-04-06T04:34:47;101630.66;;;13.55;39.34
38616;BME280;24370;51.986;4.666;2023-04-06T04:37:13;101627.59;;;12.99;40.31
38616;BME280;24370;51.986;4.666;2023-04-06T04:39:38;101633.28;;;13.57;39.36
38616;BME280;24370;51.986;4.666;2023-04-06T04:42:03;101628.25;;;13.31;39.86
38616;BME280;24370;51.986;4.666;2023-04-06T04:44:29;101630.09;;;13.18;40.25
38616;BME280;24370;51.986;4.666;2023-04-06T04:46:54;101638.06;;;13.05;40.17
38616;BME280;24370;51.986;4.666;2023-04-06T04:49:20;101631.06;;;13.04;41.16
38616;BME280;24370;51.986;4.666;2023-04-06T04:51:45;101630.88;;;13.29;40.11
38616;BME280;24370;51.986;4.666;2023-04-06T04:54:10;101630.97;;;13.17;40.65
38616;BME280;24370;51.986;4.666;2023-04-06T04:56:36;101627.69;;;13.89;39.29
38616;BME280;24370;51.986;4.666;2023-04-06T04:59:01;101630.81;;;13.42;40.44
38616;BME280;24370;51.986;4.666;2023-04-06T05:01:26;101636.25;;;13.14;41.39
38616;BME280;24370;51.986;4.666;2023-04-06T05:03:52;101635.28;;;13.29;40.72
38616;BME280;24370;51.986;4.666;2023-04-06T05:06:17;101626.13;;;13.73;40.08
38616;BME280;24370;51.986;4.666;2023-04-06T05:08:44;101623.84;;;13.34;41.07
38616;BME280;24370;51.986;4.666;2023-04-06T05:11:10;101628.00;;;13.62;40.36
38616;BME280;24370;51.986;4.666;2023-04-06T05:13:35;101632.44;;;13.55;40.41
38616;BME280;24370;51.986;4.666;2023-04-06T05:16:01;101631.22;;;13.88;39.40
38616;BME280;24370;51.986;4.666;2023-04-06T05:18:26;101629.94;;;13.35;40.48
38616;BME280;24370;51.986;4.666;2023-04-06T05:20:51;101630.72;;;13.52;40.67
38616;BME280;24370;51.986;4.666;2023-04-06T05:23:17;101617.38;;;13.71;40.48
38616;BME280;24370;51.986;4.666;2023-04-06T05:25:42;101621.78;;;13.70;40.08
38616;BME280;24370;51.986;4.666;2023-04-06T05:28:08;101604.47;;;14.25;39.30
38616;BME280;24370;51.986;4.666;2023-04-06T05:30:33;101612.91;;;13.81;40.31
38616;BME280;24370;51.986;4.666;2023-04-06T05:33:00;101618.19;;;13.78;40.55
38616;BME280;24370;51.986;4.666;2023-04-06T05:35:25;101615.25;;;14.05;39.34
38616;BME280;24370;51.986;4.666;2023-04-06T05:37:51;101600.91;;;14.30;39.47
38616;BME280;24370;51.986;4.666;2023-04-06T05:40:16;101603.69;;;14.19;39.37
38616;BME280;24370;51.986;4.666;2023-04-06T05:42:42;101611.22;;;14.47;38.76
38616;BME280;24370;51.986;4.666;2023-04-06T05:45:08;101607.91;;;14.31;39.13
38616;BME280;24370;51.986;4.666;2023-04-06T05:47:34;101608.53;;;14.51;38.67
38616;BME280;24370;51.986;4.666;2023-04-06T05:50:00;101613.53;;;14.70;38.51
38616;BME280;24370;51.986;4.666;2023-04-06T05:52:25;101614.06;;;14.93;38.19
38616;BME280;24370;51.986;4.666;2023-04-06T05:54:51;101606.88;;;14.41;38.82
38616;BME280;24370;51.986;4.666;2023-04-06T05:57:17;101605.16;;;14.41;38.78
38616;BME280;24370;51.986;4.666;2023-04-06T05:59:42;101616.69;;;14.30;39.73
38616;BME280;24370;51.986;4.666;2023-04-06T06:02:08;101607.78;;;14.41;39.18
38616;BME280;24370;51.986;4.666;2023-04-06T06:04:33;101609.53;;;15.03;38.32
38616;BME280;24370;51.986;4.666;2023-04-06T06:06:59;101610.03;;;14.69;39.23
38616;BME280;24370;51.986;4.666;2023-04-06T06:09:24;101613.81;;;15.09;38.73
38616;BME280;24370;51.986;4.666;2023-04-06T06:11:50;101604.25;;;14.41;39.66
38616;BME280;24370;51.986;4.666;2023-04-06T06:14:16;101606.16;;;14.95;39.18
38616;BME280;24370;51.986;4.666;2023-04-06T06:16:41;101613.41;;;14.12;40.83
38616;BME280;24370;51.986;4.666;2023-04-06T06:19:07;101618.56;;;14.87;39.58
38616;BME280;24370;51.986;4.666;2023-04-06T06:21:32;101610.09;;;14.66;39.96
38616;BME280;24370;51.986;4.666;2023-04-06T06:23:57;101606.47;;;14.73;40.27
38616;BME280;24370;51.986;4.666;2023-04-06T06:26:23;101604.84;;;14.66;40.06
38616;BME280;24370;51.986;4.666;2023-04-06T06:28:48;101604.31;;;15.00;39.53
38616;BME280;24370;51.986;4.666;2023-04-06T06:31:13;101606.28;;;14.86;39.79
38616;BME280;24370;51.986;4.666;2023-04-06T06:33:39;101602.50;;;14.43;40.53
38616;BME280;24370;51.986;4.666;2023-04-06T06:36:04;101609.13;;;15.28;39.09
38616;BME280;24370;51.986;4.666;2023-04-06T06:38:30;101607.38;;;14.02;41.58
38616;BME280;24370;51.986;4.666;2023-04-06T06:40:55;101606.16;;;14.31;41.00
38616;BME280;24370;51.986;4.666;2023-04-06T06:43:21;101605.38;;;14.26;40.84
38616;BME280;24370;51.986;4.666;2023-04-06T06:45:46;101605.03;;;14.51;40.91
38616;BME280;24370;51.986;4.666;2023-04-06T06:48:11;101604.94;;;14.57;40.64
38616;BME280;24370;51.986;4.666;2023-04-06T06:50:37;101604.16;;;15.09;39.56
38616;BME280;24370;51.986;4.666;2023-04-06T06:53:02;101602.81;;;15.37;39.27
38616;BME280;24370;51.986;4.666;2023-04-06T06:55:28;101604.09;;;15.14;39.87
38616;BME280;24370;51.986;4.666;2023-04-06T06:57:53;101608.75;;;13.58;43.20
38616;BME280;24370;51.986;4.666;2023-04-06T07:00:19;101607.09;;;13.51;43.85
38616;BME280;24370;51.986;4.666;2023-04-06T07:02:48;101598.81;;;14.56;41.99
38616;BME280;24370;51.986;4.666;2023-04-06T07:05:15;101600.84;;;14.36;41.98
38616;BME280;24370;51.986;4.666;2023-04-06T07:07:41;101600.25;;;14.14;42.83
38616;BME280;24370;51.986;4.666;2023-04-06T07:10:07;101598.78;;;15.16;40.74
38616;BME280;24370;51.986;4.666;2023-04-06T07:12:32;101595.34;;;15.60;39.84
38616;BME280;24370;51.986;4.666;2023-04-06T07:14:58;101589.88;;;16.17;38.69
38616;BME280;24370;51.986;4.666;2023-04-06T07:17:23;101592.97;;;15.93;39.04
38616;BME280;24370;51.986;4.666;2023-04-06T07:19:49;101597.78;;;14.68;40.88
38616;BME280;24370;51.986;4.666;2023-04-06T07:22:14;101595.59;;;15.47;40.62
38616;BME280;24370;51.986;4.666;2023-04-06T07:24:40;101594.16;;;15.29;40.54
38616;BME280;24370;51.986;4.666;2023-04-06T07:27:05;101588.13;;;15.72;40.17
38616;BME280;24370;51.986;4.666;2023-04-06T07:29:31;101579.97;;;15.86;39.22
38616;BME280;24370;51.986;4.666;2023-04-06T07:31:56;101584.81;;;15.60;39.84
38616;BME280;24370;51.986;4.666;2023-04-06T07:34:22;101581.47;;;15.98;38.92
38616;BME280;24370;51.986;4.666;2023-04-06T07:36:47;101581.00;;;15.75;38.82
38616;BME280;24370;51.986;4.666;2023-04-06T07:39:13;101573.16;;;16.94;37.33
38616;BME280;24370;51.986;4.666;2023-04-06T07:41:38;101579.03;;;15.41;39.21
38616;BME280;24370;51.986;4.666;2023-04-06T07:44:05;101574.06;;;15.71;38.36
38616;BME280;24370;51.986;4.666;2023-04-06T07:46:30;101581.03;;;15.27;39.22
38616;BME280;24370;51.986;4.666;2023-04-06T07:48:59;101581.38;;;15.08;39.99
38616;BME280;24370;51.986;4.666;2023-04-06T07:51:26;101581.09;;;15.71;39.28
38616;BME280;24370;51.986;4.666;2023-04-06T07:53:51;101586.78;;;15.96;39.30
38616;BME280;24370;51.986;4.666;2023-04-06T07:56:17;101581.88;;;15.76;38.79
38616;BME280;24370;51.986;4.666;2023-04-06T07:58:42;101580.16;;;15.28;40.18
38616;BME280;24370;51.986;4.666;2023-04-06T08:01:08;101589.38;;;15.98;39.58
38616;BME280;24370;51.986;4.666;2023-04-06T08:03:34;101582.75;;;15.76;39.80
38616;BME280;24370;51.986;4.666;2023-04-06T08:06:00;101592.97;;;15.47;39.81
38616;BME280;24370;51.986;4.666;2023-04-06T08:08:25;101590.09;;;16.47;38.63
38616;BME280;24370;51.986;4.666;2023-04-06T08:10:50;101583.00;;;16.09;39.19
38616;BME280;24370;51.986;4.666;2023-04-06T08:13:16;101585.78;;;15.55;40.01
38616;BME280;24370;51.986;4.666;2023-04-06T08:15:42;101583.38;;;16.32;38.97
38616;BME280;24370;51.986;4.666;2023-04-06T08:18:08;101584.69;;;15.67;40.21
38616;BME280;24370;51.986;4.666;2023-04-06T08:20:34;101582.16;;;15.62;40.70
38616;BME280;24370;51.986;4.666;2023-04-06T08:23:00;101588.31;;;15.61;40.72
38616;BME280;24370;51.986;4.666;2023-04-06T08:25:25;101581.50;;;16.38;40.70
38616;BME280;24370;51.986;4.666;2023-04-06T08:27:51;101587.44;;;16.84;40.42
38616;BME280;24370;51.986;4.666;2023-04-06T08:30:16;101595.19;;;16.56;42.12
38616;BME280;24370;51.986;4.666;2023-04-06T08:32:44;101591.88;;;16.84;41.68
38616;BME280;24370;51.986;4.666;2023-04-06T08:35:09;101590.41;;;14.90;47.83
38616;BME280;24370;51.986;4.666;2023-04-06T08:37:35;101592.75;;;15.09;48.09
38616;BME280;24370;51.986;4.666;2023-04-06T08:40:00;101594.94;;;14.84;49.16
38616;BME280;24370;51.986;4.666;2023-04-06T08:42:26;101588.34;;;15.59;47.07
38616;BME280;24370;51.986;4.666;2023-04-06T08:44:54;101587.66;;;14.98;48.54
38616;BME280;24370;51.986;4.666;2023-04-06T08:47:20;101579.25;;;15.29;48.43
38616;BME280;24370;51.986;4.666;2023-04-06T08:49:46;101584.75;;;15.17;47.85
38616;BME280;24370;51.986;4.666;2023-04-06T08:52:12;101586.75;;;15.01;48.04
38616;BME280;24370;51.986;4.666;2023-04-06T08:54:38;101580.66;;;14.97;48.16
38616;BME280;24370;51.986;4.666;2023-04-06T08:57:05;101589.09;;;14.63;48.01
38616;BME280;24370;51.986;4.666;2023-04-06T08:59:31;101586.31;;;14.72;49.02
38616;BME280;24370;51.986;4.666;2023-04-06T09:01:57;101584.16;;;14.37;48.44
38616;BME280;24370;51.986;4.666;2023-04-06T09:04:24;101585.34;;;14.80;47.53
38616;BME280;24370;51.986;4.666;2023-04-06T09:06:51;101589.56;;;14.90;46.85
38616;BME280;24370;51.986;4.666;2023-04-06T09:09:17;101578.69;;;16.05;45.13
38616;BME280;24370;51.986;4.666;2023-04-06T09:11:47;101578.56;;;15.66;44.81
38616;BME280;24370;51.986;4.666;2023-04-06T09:14:14;101589.59;;;14.87;47.70
38616;BME280;24370;51.986;4.666;2023-04-06T09:16:41;101574.91;;;15.73;46.42
38616;BME280;24370;51.986;4.666;2023-04-06T09:19:07;101584.94;;;15.54;45.85
38616;BME280;24370;51.986;4.666;2023-04-06T09:21:32;101589.25;;;14.51;47.75
38616;BME280;24370;51.986;4.666;2023-04-06T09:23:59;101581.38;;;13.79;50.06
38616;BME280;24370;51.986;4.666;2023-04-06T09:26:25;101574.38;;;14.48;49.22
38616;BME280;24370;51.986;4.666;2023-04-06T09:28:54;101572.91;;;15.39;47.52
38616;BME280;24370;51.986;4.666;2023-04-06T09:31:26;101581.13;;;15.69;47.90
38616;BME280;24370;51.986;4.666;2023-04-06T09:33:52;101581.66;;;14.90;49.76
38616;BME280;24370;51.986;4.666;2023-04-06T09:36:18;101574.06;;;14.70;49.96
38616;BME280;24370;51.986;4.666;2023-04-06T09:39:06;101570.09;;;14.39;50.86
38616;BME280;24370;51.986;4.666;2023-04-06T09:41:35;101573.34;;;15.15;50.30
38616;BME280;24370;51.986;4.666;2023-04-06T09:44:11;101570.19;;;14.94;51.08
38616;BME280;24370;51.986;4.666;2023-04-06T09:46:42;101570.41;;;15.33;50.33
38616;BME280;24370;51.986;4.666;2023-04-06T09:49:09;101565.47;;;15.61;50.50
38616;BME280;24370;51.986;4.666;2023-04-06T09:52:01;101567.84;;;15.29;50.30
38616;BME280;24370;51.986;4.666;2023-04-06T09:54:28;101563.88;;;15.04;51.09
38616;BME280;24370;51.986;4.666;2023-04-06T09:57:21;101567.75;;;14.82;51.38
38616;BME280;24370;51.986;4.666;2023-04-06T10:00:05;101565.34;;;15.21;51.61
38616;BME280;24370;51.986;4.666;2023-04-06T10:05:46;101559.50;;;15.03;53.50
38616;BME280;24370;51.986;4.666;2023-04-06T10:08:18;101562.91;;;15.10;53.83
38616;BME280;24370;51.986;4.666;2023-04-06T10:10:44;101561.94;;;15.16;54.29
38616;BME280;24370;51.986;4.666;2023-04-06T10:13:11;101556.66;;;15.16;53.29
38616;BME280;24370;51.986;4.666;2023-04-06T10:15:38;101563.38;;;15.81;53.18
38616;BME280;24370;51.986;4.666;2023-04-06T10:18:06;101560.66;;;14.87;55.27
38616;BME280;24370;51.986;4.666;2023-04-06T10:20:41;101549.09;;;14.36;56.96
38616;BME280;24370;51.986;4.666;2023-04-06T10:25:55;101548.44;;;14.83;56.41
38616;BME280;24370;51.986;4.666;2023-04-06T10:28:21;101554.13;;;14.52;57.71
38616;BME280;24370;51.986;4.666;2023-04-06T10:30:46;101539.03;;;15.21;56.01
38616;BME280;24370;51.986;4.666;2023-04-06T10:33:16;101532.53;;;15.39;55.34
38616;BME280;24370;51.986;4.666;2023-04-06T10:35:41;101547.00;;;14.63;59.71
38616;BME280;24370;51.986;4.666;2023-04-06T10:38:07;101540.81;;;14.67;60.41
38616;BME280;24370;51.986;4.666;2023-04-06T10:40:36;101532.47;;;14.36;60.72
38616;BME280;24370;51.986;4.666;2023-04-06T10:43:22;101542.19;;;14.29;61.42
38616;BME280;24370;51.986;4.666;2023-04-06T10:45:57;101528.25;;;15.33;58.09
38616;BME280;24370;51.986;4.666;2023-04-06T10:48:24;101533.81;;;14.65;60.64
38616;BME280;24370;51.986;4.666;2023-04-06T10:50:51;101538.69;;;14.30;62.50
38616;BME280;24370;51.986;4.666;2023-04-06T10:53:25;101532.28;;;15.04;59.88
38616;BME280;24370;51.986;4.666;2023-04-06T10:55:51;101521.63;;;15.10;60.05
38616;BME280;24370;51.986;4.666;2023-04-06T10:58:18;101517.41;;;14.46;62.50
38616;BME280;24370;51.986;4.666;2023-04-06T11:00:45;101518.16;;;13.93;63.27
38616;BME280;24370;51.986;4.666;2023-04-06T11:03:10;101517.78;;;14.21;62.90
38616;BME280;24370;51.986;4.666;2023-04-06T11:05:36;101511.47;;;14.89;61.32
38616;BME280;24370;51.986;4.666;2023-04-06T11:08:01;101513.19;;;14.91;61.30
38616;BME280;24370;51.986;4.666;2023-04-06T11:10:26;101506.47;;;15.70;58.71
38616;BME280;24370;51.986;4.666;2023-04-06T11:12:56;101510.00;;;15.24;59.32
38616;BME280;24370;51.986;4.666;2023-04-06T11:15:22;101515.72;;;14.98;61.14
38616;BME280;24370;51.986;4.666;2023-04-06T11:17:48;101505.91;;;15.07;60.79
38616;BME280;24370;51.986;4.666;2023-04-06T11:20:14;101502.22;;;14.66;61.40
38616;BME280;24370;51.986;4.666;2023-04-06T11:22:52;101500.56;;;15.10;60.84
38616;BME280;24370;51.986;4.666;2023-04-06T11:25:17;101503.41;;;15.00;61.98
38616;BME280;24370;51.986;4.666;2023-04-06T11:27:45;101497.13;;;15.08;61.57
38616;BME280;24370;51.986;4.666;2023-04-06T11:30:11;101490.91;;;15.13;62.25
38616;BME280;24370;51.986;4.666;2023-04-06T11:32:44;101484.59;;;15.20;61.23
38616;BME280;24370;51.986;4.666;2023-04-06T11:35:20;101494.09;;;14.22;65.81
38616;BME280;24370;51.986;4.666;2023-04-06T11:37:46;101489.97;;;15.14;63.48
38616;BME280;24370;51.986;4.666;2023-04-06T11:40:11;101484.88;;;15.51;61.10
38616;BME280;24370;51.986;4.666;2023-04-06T11:42:37;101485.75;;;15.05;61.87
38616;BME280;24370;51.986;4.666;2023-04-06T11:45:06;101482.75;;;14.17;64.99
38616;BME280;24370;51.986;4.666;2023-04-06T11:47:34;101480.72;;;15.39;60.83
38616;BME280;24370;51.986;4.666;2023-04-06T11:50:10;101473.28;;;15.15;63.16
38616;BME280;24370;51.986;4.666;2023-04-06T11:52:36;101471.63;;;14.59;63.08
38616;BME280;24370;51.986;4.666;2023-04-06T11:55:13;101466.75;;;15.34;63.74
38616;BME280;24370;51.986;4.666;2023-04-06T11:57:39;101466.97;;;15.25;62.76
38616;BME280;24370;51.986;4.666;2023-04-06T12:00:06;101474.00;;;15.23;61.43
38616;BME280;24370;51.986;4.666;2023-04-06T12:02:31;101468.75;;;15.23;61.82
38616;BME280;24370;51.986;4.666;2023-04-06T12:04:57;101479.47;;;14.04;65.44
38616;BME280;24370;51.986;4.666;2023-04-06T12:07:22;101468.56;;;15.32;63.04
38616;BME280;24370;51.986;4.666;2023-04-06T12:09:48;101471.34;;;14.76;62.53
38616;BME280;24370;51.986;4.666;2023-04-06T12:12:13;101473.00;;;14.25;64.79
38616;BME280;24370;51.986;4.666;2023-04-06T12:14:38;101460.75;;;15.29;62.61
38616;BME280;24370;51.986;4.666;2023-04-06T12:17:04;101465.63;;;15.02;61.89
38616;BME280;24370;51.986;4.666;2023-04-06T12:19:29;101464.22;;;14.83;63.43
38616;BME280;24370;51.986;4.666;2023-04-06T12:21:55;101461.38;;;14.40;64.92
38616;BME280;24370;51.986;4.666;2023-04-06T12:24:22;101452.94;;;14.20;68.66
38616;BME280;24370;51.986;4.666;2023-04-06T12:26:48;101461.38;;;14.40;65.00
38616;BME280;24370;51.986;4.666;2023-04-06T12:29:13;101461.25;;;14.50;66.08
38616;BME280;24370;51.986;4.666;2023-04-06T12:31:39;101455.03;;;14.54;65.00
38616;BME280;24370;51.986;4.666;2023-04-06T12:34:06;101456.19;;;14.37;66.16
38616;BME280;24370;51.986;4.666;2023-04-06T12:36:32;101457.38;;;14.72;64.70
38616;BME280;24370;51.986;4.666;2023-04-06T12:38:58;101447.56;;;15.29;63.97
38616;BME280;24370;51.986;4.666;2023-04-06T12:41:24;101455.88;;;14.56;68.11
38616;BME280;24370;51.986;4.666;2023-04-06T12:43:50;101453.31;;;14.51;65.70
38616;BME280;24370;51.986;4.666;2023-04-06T12:46:15;101445.25;;;14.62;65.86
38616;BME280;24370;51.986;4.666;2023-04-06T12:48:41;101443.97;;;15.33;63.88
38616;BME280;24370;51.986;4.666;2023-04-06T12:51:07;101440.31;;;15.40;62.53